sensor_id;sensor_type;location;lat;lon;timestamp;pressure;altitude;pressure_sealevel;temperature;humidity
50282;BME280;36176;51.506;10.272;2022-11-20T00:01:23;99160.00;;;-6.97;87.82
50282;BME280;36176;51.506;10.272;2022-11-20T00:03:52;99158.28;;;-6.98;86.94
50282;BME280;36176;51.506;10.272;2022-11-20T00:06:20;99152.28;;;-6.99;87.58
50282;BME280;36176;51.506;10.272;2022-11-20T00:08:53;99150.53;;;-7.00;86.99
50282;BME280;36176;51.506;10.272;2022-11-20T00:11:37;99153.94;;;-7.01;87.09
50282;BME280;36176;51.506;10.272;2022-11-20T00:14:04;99152.19;;;-7.02;87.44
50282;BME280;36176;51.506;10.272;2022-11-20T00:16:32;99141.88;;;-7.03;87.57
50282;BME280;36176;51.506;10.272;2022-11-20T00:19:00;99142.72;;;-7.04;86.99
50282;BME280;36176;51.506;10.272;2022-11-20T00:21:28;99134.97;;;-7.04;87.13
50282;BME280;36176;51.506;10.272;2022-11-20T00:24:08;99133.28;;;-7.04;87.33
50282;BME280;36176;51.506;10.272;2022-11-20T00:26:36;99145.28;;;-7.06;86.72
50282;BME280;36176;51.506;10.272;2022-11-20T00:29:03;99140.06;;;-7.09;86.98
50282;BME280;36176;51.506;10.272;2022-11-20T00:31:30;99146.00;;;-7.12;86.45
50282;BME280;36176;51.506;10.272;2022-11-20T00:33:59;99139.09;;;-7.14;86.81
50282;BME280;36176;51.506;10.272;2022-11-20T00:36:28;99142.50;;;-7.17;87.02
50282;BME280;36176;51.506;10.272;2022-11-20T00:38:57;99144.16;;;-7.19;86.73
50282;BME280;36176;51.506;10.272;2022-11-20T00:41:26;99148.31;;;-7.25;86.23
50282;BME280;36176;51.506;10.272;2022-11-20T00:43:54;99144.03;;;-7.27;86.56
50282;BME280;36176;51.506;10.272;2022-11-20T00:46:23;99151.72;;;-7.30;86.42
50282;BME280;36176;51.506;10.272;2022-11-20T00:48:51;99143.88;;;-7.34;87.13
50282;BME280;36176;51.506;10.272;2022-11-20T00:51:20;99147.28;;;-7.35;87.42
50282;BME280;36176;51.506;10.272;2022-11-20T00:53:48;99143.81;;;-7.39;87.45
50282;BME280;36176;51.506;10.272;2022-11-20T00:56:18;99143.84;;;-7.37;87.64
50282;BME280;36176;51.506;10.272;2022-11-20T00:58:47;99143.00;;;-7.36;87.27
50282;BME280;36176;51.506;10.272;2022-11-20T01:01:19;99139.59;;;-7.34;87.28
50282;BME280;36176;51.506;10.272;2022-11-20T01:03:49;99150.81;;;-7.32;86.64
50282;BME280;36176;51.506;10.272;2022-11-20T01:06:17;99143.94;;;-7.31;87.08
50282;BME280;36176;51.506;10.272;2022-11-20T01:08:46;99144.81;;;-7.31;87.24
50282;BME280;36176;51.506;10.272;2022-11-20T01:11:16;99152.50;;;-7.32;87.17
50282;BME280;36176;51.506;10.272;2022-11-20T01:13:45;99143.03;;;-7.33;87.42
50282;BME280;36176;51.506;10.272;2022-11-20T01:16:24;99143.91;;;-7.33;87.22
50282;BME280;36176;51.506;10.272;2022-11-20T01:18:54;99144.72;;;-7.35;86.89
50282;BME280;36176;51.506;10.272;2022-11-20T01:21:25;99141.28;;;-7.36;87.05
50282;BME280;36176;51.506;10.272;2022-11-20T01:24:01;99136.16;;;-7.34;87.23
50282;BME280;36176;51.506;10.272;2022-11-20T01:26:31;99132.69;;;-7.36;87.67
50282;BME280;36176;51.506;10.272;2022-11-20T01:28:59;99130.94;;;-7.39;87.50
50282;BME280;36176;51.506;10.272;2022-11-20T01:31:32;99128.31;;;-7.40;87.43
50282;BME280;36176;51.506;10.272;2022-11-20T01:34:01;99132.66;;;-7.39;87.73
50282;BME280;36176;51.506;10.272;2022-11-20T01:36:30;99128.34;;;-7.39;87.84
50282;BME280;36176;51.506;10.272;2022-11-20T01:39:00;99119.78;;;-7.38;87.56
50282;BME280;36176;51.506;10.272;2022-11-20T01:41:29;99117.19;;;-7.39;86.88
50282;BME280;36176;51.506;10.272;2022-11-20T01:44:18;99112.81;;;-7.43;87.07
50282;BME280;36176;51.506;10.272;2022-11-20T01:46:56;99113.59;;;-7.47;87.87
50282;BME280;36176;51.506;10.272;2022-11-20T01:49:34;99110.16;;;-7.48;87.29
50282;BME280;36176;51.506;10.272;2022-11-20T01:52:08;99105.91;;;-7.46;87.69
50282;BME280;36176;51.506;10.272;2022-11-20T01:55:00;99101.53;;;-7.52;86.60
50282;BME280;36176;51.506;10.272;2022-11-20T01:57:29;99096.25;;;-7.58;87.40
50282;BME280;36176;51.506;10.272;2022-11-20T02:00:19;99086.81;;;-7.57;86.24
50282;BME280;36176;51.506;10.272;2022-11-20T02:03:11;99080.78;;;-7.59;87.53
50282;BME280;36176;51.506;10.272;2022-11-20T02:06:05;99078.19;;;-7.61;86.33
50282;BME280;36176;51.506;10.272;2022-11-20T02:08:31;99076.44;;;-7.63;86.47
50282;BME280;36176;51.506;10.272;2022-11-20T02:11:00;99081.50;;;-7.68;86.45
50282;BME280;36176;51.506;10.272;2022-11-20T02:13:27;99084.84;;;-7.72;86.99
50282;BME280;36176;51.506;10.272;2022-11-20T02:16:22;99086.47;;;-7.76;86.36
50282;BME280;36176;51.506;10.272;2022-11-20T02:18:51;99094.19;;;-7.76;86.34
50282;BME280;36176;51.506;10.272;2022-11-20T02:21:24;99089.03;;;-7.76;86.92
50282;BME280;36176;51.506;10.272;2022-11-20T02:24:11;99085.59;;;-7.76;86.80
50282;BME280;36176;51.506;10.272;2022-11-20T02:26:48;99091.59;;;-7.77;87.15
50282;BME280;36176;51.506;10.272;2022-11-20T02:29:26;99089.84;;;-7.78;86.84
50282;BME280;36176;51.506;10.272;2022-11-20T02:31:55;99091.59;;;-7.77;86.63
50282;BME280;36176;51.506;10.272;2022-11-20T02:34:24;99098.44;;;-7.78;86.98
50282;BME280;36176;51.506;10.272;2022-11-20T02:36:51;99095.84;;;-7.79;87.07
50282;BME280;36176;51.506;10.272;2022-11-20T02:39:20;99085.44;;;-7.84;86.40
50282;BME280;36176;51.506;10.272;2022-11-20T02:42:02;99090.53;;;-7.87;87.19
50282;BME280;36176;51.506;10.272;2022-11-20T02:44:29;99088.78;;;-7.88;87.33
50282;BME280;36176;51.506;10.272;2022-11-20T02:46:59;99087.13;;;-7.87;87.06
50282;BME280;36176;51.506;10.272;2022-11-20T02:49:26;99093.94;;;-7.88;86.57
50282;BME280;36176;51.506;10.272;2022-11-20T02:51:53;99079.34;;;-7.89;86.85
50282;BME280;36176;51.506;10.272;2022-11-20T02:54:20;99079.31;;;-7.92;86.44
50282;BME280;36176;51.506;10.272;2022-11-20T02:56:47;99077.53;;;-7.95;86.57
50282;BME280;36176;51.506;10.272;2022-11-20T02:59:22;99066.34;;;-7.95;86.69
50282;BME280;36176;51.506;10.272;2022-11-20T03:01:49;99069.78;;;-7.96;87.09
50282;BME280;36176;51.506;10.272;2022-11-20T03:04:16;99071.50;;;-7.97;87.18
50282;BME280;36176;51.506;10.272;2022-11-20T03:06:43;99076.59;;;-7.98;86.88
50282;BME280;36176;51.506;10.272;2022-11-20T03:09:11;99076.63;;;-7.97;86.32
50282;BME280;36176;51.506;10.272;2022-11-20T03:11:39;99077.44;;;-7.99;86.17
50282;BME280;36176;51.506;10.272;2022-11-20T03:14:06;99073.94;;;-8.03;86.37
50282;BME280;36176;51.506;10.272;2022-11-20T03:16:33;99079.88;;;-8.05;86.23
50282;BME280;36176;51.506;10.272;2022-11-20T03:19:00;99074.72;;;-8.05;86.53
50282;BME280;36176;51.506;10.272;2022-11-20T03:21:28;99072.94;;;-8.09;86.05
50282;BME280;36176;51.506;10.272;2022-11-20T03:24:14;99077.16;;;-8.13;86.70
50282;BME280;36176;51.506;10.272;2022-11-20T03:26:59;99074.63;;;-8.11;86.52
50282;BME280;36176;51.506;10.272;2022-11-20T03:29:45;99075.50;;;-8.09;86.32
50282;BME280;36176;51.506;10.272;2022-11-20T03:32:12;99072.06;;;-8.10;87.21
50282;BME280;36176;51.506;10.272;2022-11-20T03:34:39;99069.50;;;-8.10;86.64
50282;BME280;36176;51.506;10.272;2022-11-20T03:37:06;99072.09;;;-8.08;86.86
50282;BME280;36176;51.506;10.272;2022-11-20T03:39:33;99066.97;;;-8.08;86.68
50282;BME280;36176;51.506;10.272;2022-11-20T03:42:00;99068.69;;;-8.07;86.31
50282;BME280;36176;51.506;10.272;2022-11-20T03:44:29;99068.63;;;-8.10;86.31
50282;BME280;36176;51.506;10.272;2022-11-20T03:46:56;99059.13;;;-8.15;85.85
50282;BME280;36176;51.506;10.272;2022-11-20T03:49:23;99072.75;;;-8.19;86.13
50282;BME280;36176;51.506;10.272;2022-11-20T03:51:50;99071.00;;;-8.20;86.52
50282;BME280;36176;51.506;10.272;2022-11-20T03:54:17;99063.34;;;-8.18;86.19
50282;BME280;36176;51.506;10.272;2022-11-20T03:56:44;99057.34;;;-8.19;86.91
50282;BME280;36176;51.506;10.272;2022-11-20T03:59:12;99051.28;;;-8.21;86.21
50282;BME280;36176;51.506;10.272;2022-11-20T04:01:39;99051.25;;;-8.22;86.31
50282;BME280;36176;51.506;10.272;2022-11-20T04:04:14;99042.69;;;-8.23;86.93
50282;BME280;36176;51.506;10.272;2022-11-20T04:06:41;99036.69;;;-8.23;86.43
50282;BME280;36176;51.506;10.272;2022-11-20T04:09:08;99039.25;;;-8.23;87.68
50282;BME280;36176;51.506;10.272;2022-11-20T04:11:37;99040.19;;;-8.18;87.23
50282;BME280;36176;51.506;10.272;2022-11-20T04:14:05;99032.50;;;-8.17;87.37
50282;BME280;36176;51.506;10.272;2022-11-20T04:16:35;99036.81;;;-8.16;86.86
50282;BME280;36176;51.506;10.272;2022-11-20T04:19:05;99040.31;;;-8.14;87.31
50282;BME280;36176;51.506;10.272;2022-11-20T04:21:34;99036.03;;;-8.13;87.39
50282;BME280;36176;51.506;10.272;2022-11-20T04:24:03;99039.41;;;-8.14;87.61
50282;BME280;36176;51.506;10.272;2022-11-20T04:26:30;99037.69;;;-8.15;87.14
50282;BME280;36176;51.506;10.272;2022-11-20T04:28:58;99033.41;;;-8.16;87.18
50282;BME280;36176;51.506;10.272;2022-11-20T04:31:28;99028.25;;;-8.15;87.50
50282;BME280;36176;51.506;10.272;2022-11-20T04:33:59;99023.13;;;-8.15;86.99
50282;BME280;36176;51.506;10.272;2022-11-20T04:36:28;99029.94;;;-8.17;86.61
50282;BME280;36176;51.506;10.272;2022-11-20T04:38:58;99033.41;;;-8.15;86.98
50282;BME280;36176;51.506;10.272;2022-11-20T04:41:29;99027.34;;;-8.18;86.13
50282;BME280;36176;51.506;10.272;2022-11-20T04:44:00;99033.28;;;-8.21;87.10
50282;BME280;36176;51.506;10.272;2022-11-20T04:46:41;99029.81;;;-8.23;86.63
50282;BME280;36176;51.506;10.272;2022-11-20T04:49:36;99028.81;;;-8.29;86.46
50282;BME280;36176;51.506;10.272;2022-11-20T04:52:07;99026.16;;;-8.34;85.88
50282;BME280;36176;51.506;10.272;2022-11-20T04:54:34;99038.19;;;-8.33;86.50
50282;BME280;36176;51.506;10.272;2022-11-20T04:57:02;99026.09;;;-8.37;86.31
50282;BME280;36176;51.506;10.272;2022-11-20T04:59:29;99032.91;;;-8.39;86.32
50282;BME280;36176;51.506;10.272;2022-11-20T05:01:56;99035.47;;;-8.39;86.70
50282;BME280;36176;51.506;10.272;2022-11-20T05:04:23;99030.31;;;-8.41;86.01
50282;BME280;36176;51.506;10.272;2022-11-20T05:06:50;99031.13;;;-8.45;86.24
50282;BME280;36176;51.506;10.272;2022-11-20T05:09:17;99038.81;;;-8.45;86.73
50282;BME280;36176;51.506;10.272;2022-11-20T05:12:04;99034.56;;;-8.43;86.88
50282;BME280;36176;51.506;10.272;2022-11-20T05:14:31;99036.25;;;-8.43;86.73
50282;BME280;36176;51.506;10.272;2022-11-20T05:16:59;99037.97;;;-8.44;86.57
50282;BME280;36176;51.506;10.272;2022-11-20T05:19:26;99037.97;;;-8.44;86.68
50282;BME280;36176;51.506;10.272;2022-11-20T05:21:53;99038.78;;;-8.46;86.70
50282;BME280;36176;51.506;10.272;2022-11-20T05:24:20;99035.31;;;-8.48;86.98
50282;BME280;36176;51.506;10.272;2022-11-20T05:26:47;99032.78;;;-8.47;86.31
50282;BME280;36176;51.506;10.272;2022-11-20T05:29:24;99030.16;;;-8.48;86.79
50282;BME280;36176;51.506;10.272;2022-11-20T05:31:51;99034.41;;;-8.50;86.24
50282;BME280;36176;51.506;10.272;2022-11-20T05:34:18;99039.53;;;-8.50;86.59
50282;BME280;36176;51.506;10.272;2022-11-20T05:36:45;99028.34;;;-8.52;86.88
50282;BME280;36176;51.506;10.272;2022-11-20T05:39:12;99021.53;;;-8.52;86.16
50282;BME280;36176;51.506;10.272;2022-11-20T05:41:39;99026.69;;;-8.52;86.09
50282;BME280;36176;51.506;10.272;2022-11-20T05:44:06;99026.69;;;-8.52;86.78
50282;BME280;36176;51.506;10.272;2022-11-20T05:46:33;99032.69;;;-8.51;85.94
50282;BME280;36176;51.506;10.272;2022-11-20T05:49:00;99030.91;;;-8.52;85.99
50282;BME280;36176;51.506;10.272;2022-11-20T05:51:27;99025.72;;;-8.56;85.66
50282;BME280;36176;51.506;10.272;2022-11-20T05:54:13;99025.66;;;-8.59;85.89
50282;BME280;36176;51.506;10.272;2022-11-20T05:56:40;99023.09;;;-8.59;86.06
50282;BME280;36176;51.506;10.272;2022-11-20T05:59:08;99034.25;;;-8.58;85.63
50282;BME280;36176;51.506;10.272;2022-11-20T06:01:35;99034.25;;;-8.58;85.39
50282;BME280;36176;51.506;10.272;2022-11-20T06:04:03;99038.47;;;-8.60;86.02
50282;BME280;36176;51.506;10.272;2022-11-20T06:06:30;99035.84;;;-8.63;85.70
50282;BME280;36176;51.506;10.272;2022-11-20T06:08:57;99029.78;;;-8.65;85.46
50282;BME280;36176;51.506;10.272;2022-11-20T06:11:25;99021.19;;;-8.67;85.41
50282;BME280;36176;51.506;10.272;2022-11-20T06:13:52;99033.16;;;-8.68;85.83
50282;BME280;36176;51.506;10.272;2022-11-20T06:16:19;99033.97;;;-8.70;85.43
50282;BME280;36176;51.506;10.272;2022-11-20T06:18:47;99031.34;;;-8.72;85.94
50282;BME280;36176;51.506;10.272;2022-11-20T06:21:16;99030.53;;;-8.71;85.45
50282;BME280;36176;51.506;10.272;2022-11-20T06:23:44;99033.13;;;-8.69;85.61
50282;BME280;36176;51.506;10.272;2022-11-20T06:26:15;99023.69;;;-8.70;85.89
50282;BME280;36176;51.506;10.272;2022-11-20T06:28:42;99029.75;;;-8.68;86.17
50282;BME280;36176;51.506;10.272;2022-11-20T06:31:11;99026.31;;;-8.69;85.49
50282;BME280;36176;51.506;10.272;2022-11-20T06:33:39;99021.13;;;-8.70;85.66
50282;BME280;36176;51.506;10.272;2022-11-20T06:36:06;99018.50;;;-8.72;85.34
50282;BME280;36176;51.506;10.272;2022-11-20T06:38:37;99018.50;;;-8.72;86.32
50282;BME280;36176;51.506;10.272;2022-11-20T06:41:06;99028.78;;;-8.72;85.85
50282;BME280;36176;51.506;10.272;2022-11-20T06:43:34;99028.88;;;-8.69;86.68
50282;BME280;36176;51.506;10.272;2022-11-20T06:46:01;99027.22;;;-8.65;87.12
50282;BME280;36176;51.506;10.272;2022-11-20T06:48:29;99030.72;;;-8.63;87.13
50282;BME280;36176;51.506;10.272;2022-11-20T06:50:56;99031.56;;;-8.63;86.58
50282;BME280;36176;51.506;10.272;2022-11-20T06:53:24;99025.63;;;-8.62;86.25
50282;BME280;36176;51.506;10.272;2022-11-20T06:56:09;99029.00;;;-8.63;85.86
50282;BME280;36176;51.506;10.272;2022-11-20T06:58:36;99027.28;;;-8.64;86.90
50282;BME280;36176;51.506;10.272;2022-11-20T07:01:06;99029.00;;;-8.63;86.48
50282;BME280;36176;51.506;10.272;2022-11-20T07:03:34;99029.06;;;-8.60;86.03
50282;BME280;36176;51.506;10.272;2022-11-20T07:06:02;99033.38;;;-8.57;86.42
50282;BME280;36176;51.506;10.272;2022-11-20T07:08:30;99030.06;;;-8.53;86.30
50282;BME280;36176;51.506;10.272;2022-11-20T07:11:02;99029.34;;;-8.47;86.30
50282;BME280;36176;51.506;10.272;2022-11-20T07:13:30;99028.59;;;-8.42;86.71
50282;BME280;36176;51.506;10.272;2022-11-20T07:16:15;99020.97;;;-8.37;86.57
50282;BME280;36176;51.506;10.272;2022-11-20T07:18:42;99024.44;;;-8.35;85.88
50282;BME280;36176;51.506;10.272;2022-11-20T07:21:16;99024.50;;;-8.32;85.92
50282;BME280;36176;51.506;10.272;2022-11-20T07:23:50;99025.41;;;-8.28;86.11
50282;BME280;36176;51.506;10.272;2022-11-20T07:26:17;99021.25;;;-8.22;86.17
50282;BME280;36176;51.506;10.272;2022-11-20T07:28:44;99023.97;;;-8.14;85.99
50282;BME280;36176;51.506;10.272;2022-11-20T07:31:14;99026.72;;;-8.06;86.13
50282;BME280;36176;51.506;10.272;2022-11-20T07:33:46;99025.16;;;-7.98;86.50
50282;BME280;36176;51.506;10.272;2022-11-20T07:36:13;99021.88;;;-7.91;86.67
50282;BME280;36176;51.506;10.272;2022-11-20T07:38:40;99021.28;;;-7.76;87.17
50282;BME280;36176;51.506;10.272;2022-11-20T07:41:07;99021.59;;;-7.59;86.88
50282;BME280;36176;51.506;10.272;2022-11-20T07:43:34;99023.66;;;-7.40;87.40
50282;BME280;36176;51.506;10.272;2022-11-20T07:46:07;99027.31;;;-7.27;87.21
50282;BME280;36176;51.506;10.272;2022-11-20T07:48:34;99029.28;;;-7.12;87.71
50282;BME280;36176;51.506;10.272;2022-11-20T07:51:01;99038.25;;;-6.89;87.89
50282;BME280;36176;51.506;10.272;2022-11-20T07:53:28;99027.53;;;-6.57;89.78
50282;BME280;36176;51.506;10.272;2022-11-20T07:55:59;99030.59;;;-6.22;89.29
50282;BME280;36176;51.506;10.272;2022-11-20T07:58:28;99030.91;;;-5.97;86.75
50282;BME280;36176;51.506;10.272;2022-11-20T08:00:56;99020.75;;;-5.79;87.25
50282;BME280;36176;51.506;10.272;2022-11-20T08:03:23;99025.25;;;-5.61;87.12
50282;BME280;36176;51.506;10.272;2022-11-20T08:05:53;99031.41;;;-5.46;86.16
50282;BME280;36176;51.506;10.272;2022-11-20T08:08:20;99028.06;;;-5.38;85.80
50282;BME280;36176;51.506;10.272;2022-11-20T08:10:48;99033.34;;;-5.25;86.49
50282;BME280;36176;51.506;10.272;2022-11-20T08:13:15;99035.16;;;-5.15;86.93
50282;BME280;36176;51.506;10.272;2022-11-20T08:16:01;99034.34;;;-5.08;85.94
50282;BME280;36176;51.506;10.272;2022-11-20T08:18:28;99041.38;;;-4.93;86.52
50282;BME280;36176;51.506;10.272;2022-11-20T08:21:02;99040.59;;;-4.81;87.46
50282;BME280;36176;51.506;10.272;2022-11-20T08:23:29;99043.25;;;-4.71;87.95
50282;BME280;36176;51.506;10.272;2022-11-20T08:25:57;99047.59;;;-4.65;88.07
50282;BME280;36176;51.506;10.272;2022-11-20T08:28:24;99043.38;;;-4.54;89.11
50282;BME280;36176;51.506;10.272;2022-11-20T08:30:58;99046.91;;;-4.39;89.22
50282;BME280;36176;51.506;10.272;2022-11-20T08:33:26;99040.09;;;-4.28;89.12
50282;BME280;36176;51.506;10.272;2022-11-20T08:35:53;99046.19;;;-4.15;89.64
50282;BME280;36176;51.506;10.272;2022-11-20T08:38:20;99047.06;;;-4.12;88.82
50282;BME280;36176;51.506;10.272;2022-11-20T08:40:58;99047.09;;;-4.04;89.69
50282;BME280;36176;51.506;10.272;2022-11-20T08:43:44;99045.41;;;-3.96;88.92
50282;BME280;36176;51.506;10.272;2022-11-20T08:46:11;99046.28;;;-3.91;89.39
50282;BME280;36176;51.506;10.272;2022-11-20T08:48:39;99047.22;;;-3.78;90.14
50282;BME280;36176;51.506;10.272;2022-11-20T08:51:06;99048.97;;;-3.68;89.65
50282;BME280;36176;51.506;10.272;2022-11-20T08:53:33;99051.56;;;-3.63;89.74
50282;BME280;36176;51.506;10.272;2022-11-20T08:56:03;99049.00;;;-3.51;90.46
50282;BME280;36176;51.506;10.272;2022-11-20T08:58:31;99052.47;;;-3.43;89.33
50282;BME280;36176;51.506;10.272;2022-11-20T09:01:19;99055.09;;;-3.36;89.78
50282;BME280;36176;51.506;10.272;2022-11-20T09:03:47;99060.28;;;-3.24;89.31
50282;BME280;36176;51.506;10.272;2022-11-20T09:06:15;99049.09;;;-3.11;88.97
50282;BME280;36176;51.506;10.272;2022-11-20T09:08:42;99053.41;;;-3.01;88.68
50282;BME280;36176;51.506;10.272;2022-11-20T09:11:10;99053.41;;;-2.91;89.61
50282;BME280;36176;51.506;10.272;2022-11-20T09:13:38;99047.34;;;-2.78;89.56
50282;BME280;36176;51.506;10.272;2022-11-20T09:16:07;99054.28;;;-2.80;87.80
50282;BME280;36176;51.506;10.272;2022-11-20T09:18:35;99054.28;;;-2.83;87.93
50282;BME280;36176;51.506;10.272;2022-11-20T09:21:08;99042.16;;;-2.95;87.76
50282;BME280;36176;51.506;10.272;2022-11-20T09:23:39;99044.78;;;-2.87;87.97
50282;BME280;36176;51.506;10.272;2022-11-20T09:26:15;99045.66;;;-2.82;88.63
50282;BME280;36176;51.506;10.272;2022-11-20T09:28:42;99039.59;;;-2.70;89.48
50282;BME280;36176;51.506;10.272;2022-11-20T09:31:24;99039.56;;;-2.64;88.55
50282;BME280;36176;51.506;10.272;2022-11-20T09:33:52;99040.44;;;-2.64;87.93
50282;BME280;36176;51.506;10.272;2022-11-20T09:36:20;99035.25;;;-2.56;88.43
50282;BME280;36176;51.506;10.272;2022-11-20T09:38:47;99023.09;;;-2.40;87.85
50282;BME280;36176;51.506;10.272;2022-11-20T09:49:24;99020.38;;;-1.97;86.39
50282;BME280;36176;51.506;10.272;2022-11-20T09:52:01;99016.88;;;-1.90;85.99
50282;BME280;36176;51.506;10.272;2022-11-20T09:54:35;99018.56;;;-1.80;86.42
50282;BME280;36176;51.506;10.272;2022-11-20T09:57:37;99017.69;;;-1.76;86.32
50282;BME280;36176;51.506;10.272;2022-11-20T10:00:11;99015.03;;;-1.68;85.63
50282;BME280;36176;51.506;10.272;2022-11-20T10:05:29;99009.59;;;-1.23;85.59
50282;BME280;36176;51.506;10.272;2022-11-20T10:08:21;99009.50;;;-1.10;83.67
50282;BME280;36176;51.506;10.272;2022-11-20T10:25:17;99002.84;;;-0.44;81.49
50282;BME280;36176;51.506;10.272;2022-11-20T10:30:56;98994.09;;;0.34;77.12
50282;BME280;36176;51.506;10.272;2022-11-20T10:33:26;98990.16;;;0.66;77.22
50282;BME280;36176;51.506;10.272;2022-11-20T10:36:19;98979.78;;;1.17;76.48
50282;BME280;36176;51.506;10.272;2022-11-20T10:38:51;98985.06;;;1.62;73.68
50282;BME280;36176;51.506;10.272;2022-11-20T10:41:43;98982.97;;;1.81;75.38
50282;BME280;36176;51.506;10.272;2022-11-20T10:44:16;98984.03;;;2.15;75.07
50282;BME280;36176;51.506;10.272;2022-11-20T10:47:05;98979.66;;;2.17;71.04
50282;BME280;36176;51.506;10.272;2022-11-20T10:49:37;98979.84;;;2.07;71.29
50282;BME280;36176;51.506;10.272;2022-11-20T10:52:17;98975.59;;;2.02;69.37
50282;BME280;36176;51.506;10.272;2022-11-20T10:57:42;98976.72;;;1.88;71.05
50282;BME280;36176;51.506;10.272;2022-11-20T11:00:14;98976.47;;;2.02;69.85
50282;BME280;36176;51.506;10.272;2022-11-20T11:07:55;98958.63;;;1.79;72.21
50282;BME280;36176;51.506;10.272;2022-11-20T11:10:31;98948.41;;;1.67;71.83
50282;BME280;36176;51.506;10.272;2022-11-20T11:13:00;98942.25;;;1.73;71.65
50282;BME280;36176;51.506;10.272;2022-11-20T11:15:39;98945.03;;;1.63;71.61
50282;BME280;36176;51.506;10.272;2022-11-20T11:18:33;98944.44;;;1.47;70.66
50282;BME280;36176;51.506;10.272;2022-11-20T11:21:03;98944.69;;;1.35;70.91
50282;BME280;36176;51.506;10.272;2022-11-20T11:23:34;98939.75;;;1.20;72.38
50282;BME280;36176;51.506;10.272;2022-11-20T11:26:05;98938.25;;;1.05;72.08
50282;BME280;36176;51.506;10.272;2022-11-20T11:28:59;98940.25;;;0.89;73.09
50282;BME280;36176;51.506;10.272;2022-11-20T11:31:30;98934.16;;;0.90;73.28
50282;BME280;36176;51.506;10.272;2022-11-20T11:37:19;98914.97;;;0.94;74.53
50282;BME280;36176;51.506;10.272;2022-11-20T11:39:48;98918.13;;;1.12;72.94
50282;BME280;36176;51.506;10.272;2022-11-20T11:42:42;98914.66;;;1.11;73.64
50282;BME280;36176;51.506;10.272;2022-11-20T11:45:17;98911.75;;;1.28;73.76
50282;BME280;36176;51.506;10.272;2022-11-20T11:47:49;98904.53;;;1.41;73.35
50282;BME280;36176;51.506;10.272;2022-11-20T11:50:26;98913.88;;;1.54;72.38
50282;BME280;36176;51.506;10.272;2022-11-20T11:53:14;98913.03;;;1.51;70.98
50282;BME280;36176;51.506;10.272;2022-11-20T11:56:08;98908.56;;;1.57;70.98
50282;BME280;36176;51.506;10.272;2022-11-20T11:58:52;98899.63;;;1.69;70.24
50282;BME280;36176;51.506;10.272;2022-11-20T12:01:50;98901.13;;;1.81;71.98
50282;BME280;36176;51.506;10.272;2022-11-20T12:04:46;98903.41;;;1.96;70.67
50282;BME280;36176;51.506;10.272;2022-11-20T12:07:25;98899.78;;;2.03;68.76
50282;BME280;36176;51.506;10.272;2022-11-20T12:10:22;98904.03;;;2.09;69.14
50282;BME280;36176;51.506;10.272;2022-11-20T12:12:54;98897.59;;;2.24;68.89
50282;BME280;36176;51.506;10.272;2022-11-20T12:15:33;98878.66;;;2.12;65.78
50282;BME280;36176;51.506;10.272;2022-11-20T12:18:19;98876.44;;;1.96;67.42
50282;BME280;36176;51.506;10.272;2022-11-20T12:24:17;98873.31;;;1.80;66.90
50282;BME280;36176;51.506;10.272;2022-11-20T12:36:02;98864.81;;;1.68;64.45
50282;BME280;36176;51.506;10.272;2022-11-20T12:38:43;98866.69;;;1.63;65.95
50282;BME280;36176;51.506;10.272;2022-11-20T12:47:22;98866.09;;;1.49;66.57
50282;BME280;36176;51.506;10.272;2022-11-20T12:53:29;98860.34;;;1.32;67.01
50282;BME280;36176;51.506;10.272;2022-11-20T13:04:19;98850.78;;;1.31;69.10
50282;BME280;36176;51.506;10.272;2022-11-20T13:07:02;98851.69;;;1.30;69.14
50282;BME280;36176;51.506;10.272;2022-11-20T13:09:32;98839.84;;;1.13;66.29
50282;BME280;36176;51.506;10.272;2022-11-20T13:20:22;98837.53;;;0.96;68.02
50282;BME280;36176;51.506;10.272;2022-11-20T13:22:52;98838.41;;;0.97;69.10
50282;BME280;36176;51.506;10.272;2022-11-20T13:25:33;98837.63;;;0.92;68.75
50282;BME280;36176;51.506;10.272;2022-11-20T13:30:49;98835.94;;;0.88;69.59
50282;BME280;36176;51.506;10.272;2022-11-20T13:36:24;98831.66;;;0.83;67.61
50282;BME280;36176;51.506;10.272;2022-11-20T13:38:54;98829.28;;;0.73;68.09
50282;BME280;36176;51.506;10.272;2022-11-20T13:41:36;98841.53;;;0.68;67.87
50282;BME280;36176;51.506;10.272;2022-11-20T13:44:23;98833.75;;;0.64;67.68
50282;BME280;36176;51.506;10.272;2022-11-20T13:46:52;98830.41;;;0.58;67.65
50282;BME280;36176;51.506;10.272;2022-11-20T13:49:29;98830.44;;;0.55;68.12
50282;BME280;36176;51.506;10.272;2022-11-20T13:52:08;98821.81;;;0.53;68.68
50282;BME280;36176;51.506;10.272;2022-11-20T13:55:11;98824.41;;;0.53;68.21
50282;BME280;36176;51.506;10.272;2022-11-20T14:00:21;98809.72;;;0.47;68.59
50282;BME280;36176;51.506;10.272;2022-11-20T14:03:09;98807.22;;;0.41;68.65
50282;BME280;36176;51.506;10.272;2022-11-20T14:05:50;98812.50;;;0.36;68.05
50282;BME280;36176;51.506;10.272;2022-11-20T14:08:27;98809.91;;;0.35;68.14
50282;BME280;36176;51.506;10.272;2022-11-20T14:11:21;98809.09;;;0.33;69.25
50282;BME280;36176;51.506;10.272;2022-11-20T14:16:20;98804.91;;;0.24;68.98
50282;BME280;36176;51.506;10.272;2022-11-20T14:18:47;98801.47;;;0.22;68.72
50282;BME280;36176;51.506;10.272;2022-11-20T14:21:29;98803.19;;;0.21;68.69
50282;BME280;36176;51.506;10.272;2022-11-20T14:24:09;98805.84;;;0.18;68.33
50282;BME280;36176;51.506;10.272;2022-11-20T14:26:45;98808.50;;;0.17;68.87
50282;BME280;36176;51.506;10.272;2022-11-20T14:29:19;98804.22;;;0.13;68.79
50282;BME280;36176;51.506;10.272;2022-11-20T14:31:48;98805.13;;;0.09;69.11
50282;BME280;36176;51.506;10.272;2022-11-20T14:34:37;98801.69;;;0.07;68.82
50282;BME280;36176;51.506;10.272;2022-11-20T14:37:11;98798.28;;;0.03;69.45
50282;BME280;36176;51.506;10.272;2022-11-20T14:39:49;98798.41;;;-0.06;70.08
50282;BME280;36176;51.506;10.272;2022-11-20T14:42:25;98797.63;;;-0.13;70.63
50282;BME280;36176;51.506;10.272;2022-11-20T14:44:56;98787.34;;;-0.19;70.85
50282;BME280;36176;51.506;10.272;2022-11-20T14:47:29;98792.59;;;-0.24;71.76
50282;BME280;36176;51.506;10.272;2022-11-20T14:49:57;98788.31;;;-0.28;71.67